createdAt,value
2022-07-29T00:00:19.070Z,1.80
2022-07-29T00:02:46.222Z,1.90
2022-07-29T00:05:19.369Z,2.15
2022-07-29T00:07:47.151Z,1.70
2022-07-29T00:10:14.186Z,2.15
2022-07-29T00:12:41.353Z,1.85
2022-07-29T00:15:09.091Z,1.63
2022-07-29T00:17:36.193Z,2.05
2022-07-29T00:20:04.481Z,2.10
2022-07-29T00:22:31.601Z,2.17
2022-07-29T00:25:01.214Z,1.80
2022-07-29T00:27:28.328Z,1.80
2022-07-29T00:29:55.514Z,2.28
2022-07-29T00:32:22.672Z,1.85
2022-07-29T00:35:09.179Z,2.25
2022-07-29T00:37:37.114Z,2.03
2022-07-29T00:40:04.754Z,2.20
2022-07-29T00:42:31.847Z,2.25
2022-07-29T00:44:58.802Z,1.80
2022-07-29T00:47:25.798Z,1.80
2022-07-29T00:49:53.470Z,2.00
2022-07-29T00:52:21.303Z,2.17
2022-07-29T00:54:48.381Z,2.03
2022-07-29T00:57:15.549Z,2.10
2022-07-29T00:59:42.813Z,2.00
2022-07-29T01:02:10.085Z,1.95
2022-07-29T01:04:37.314Z,2.30
2022-07-29T01:07:05.290Z,2.10
2022-07-29T01:09:43.095Z,2.20
2022-07-29T01:12:27.371Z,2.50
2022-07-29T01:14:56.340Z,2.75
2022-07-29T01:17:32.322Z,2.20
2022-07-29T01:20:18.716Z,2.40
2022-07-29T01:23:12.023Z,2.20
2022-07-29T01:26:20.471Z,2.33
2022-07-29T01:29:00.730Z,2.22
2022-07-29T01:31:59.181Z,2.50
2022-07-29T01:34:42.130Z,2.08
2022-07-29T01:37:33.382Z,2.15
2022-07-29T01:40:02.893Z,2.42
2022-07-29T01:42:43.101Z,2.30
2022-07-29T01:45:17.898Z,2.45
2022-07-29T01:48:00.321Z,2.00
2022-07-29T01:50:41.125Z,2.40
2022-07-29T01:53:11.440Z,2.17
2022-07-29T01:55:43.545Z,2.35
2022-07-29T01:58:13.223Z,2.10
2022-07-29T02:00:43.848Z,2.25
2022-07-29T02:03:13.961Z,2.20
2022-07-29T02:05:44.854Z,2.25
2022-07-29T02:08:14.244Z,2.72
2022-07-29T02:10:46.997Z,2.30
2022-07-29T02:13:21.543Z,2.10
2022-07-29T02:15:51.378Z,2.38
2022-07-29T02:18:25.002Z,2.60
2022-07-29T02:20:59.476Z,2.83
2022-07-29T02:23:50.337Z,2.70
2022-07-29T02:26:21.372Z,2.50
2022-07-29T02:28:55.347Z,2.67
2022-07-29T02:31:27.334Z,2.78
2022-07-29T02:33:55.690Z,2.50
2022-07-29T02:36:24.625Z,2.53
2022-07-29T02:38:54.339Z,3.28
2022-07-29T02:41:27.050Z,2.78
2022-07-29T02:43:57.978Z,2.42
2022-07-29T02:46:33.800Z,2.75
2022-07-29T02:49:16.658Z,2.90
2022-07-29T02:51:47.090Z,3.00
2022-07-29T02:54:24.785Z,2.72
2022-07-29T02:56:56.330Z,2.97
2022-07-29T02:59:27.854Z,2.58
2022-07-29T03:01:56.481Z,2.60
2022-07-29T03:04:26.742Z,2.80
2022-07-29T03:06:54.632Z,2.78
2022-07-29T03:09:24.012Z,2.97
2022-07-29T03:11:51.236Z,2.83
2022-07-29T03:14:25.366Z,2.75
2022-07-29T03:16:53.298Z,2.70
2022-07-29T03:19:21.420Z,2.50
2022-07-29T03:21:49.122Z,2.63
2022-07-29T03:24:30.765Z,3.35
2022-07-29T03:26:58.752Z,2.10
2022-07-29T03:29:33.021Z,2.13
2022-07-29T03:32:07.384Z,2.10
2022-07-29T03:34:39.067Z,2.30
2022-07-29T03:37:07.304Z,2.10
2022-07-29T03:39:39.459Z,2.53
2022-07-29T03:42:09.236Z,1.80
2022-07-29T03:44:39.511Z,2.13
2022-07-29T03:47:09.027Z,2.38
2022-07-29T03:49:41.782Z,2.13
2022-07-29T03:52:09.843Z,2.10
2022-07-29T03:54:37.380Z,2.20
2022-07-29T03:57:07.020Z,2.15
2022-07-29T04:02:04.299Z,2.47
2022-07-29T04:07:01.549Z,2.40
2022-07-29T04:09:28.726Z,2.15
2022-07-29T04:12:03.209Z,2.13
2022-07-29T04:14:32.920Z,2.35
2022-07-29T04:17:06.267Z,2.13
2022-07-29T04:19:33.518Z,2.55
2022-07-29T04:22:01.933Z,2.43
2022-07-29T04:24:29.290Z,2.42
2022-07-29T04:26:58.464Z,2.17
2022-07-29T04:29:25.662Z,2.30
2022-07-29T04:31:52.802Z,2.63
2022-07-29T04:34:28.681Z,2.60
2022-07-29T04:36:56.378Z,2.53
2022-07-29T04:39:29.569Z,2.60
2022-07-29T04:41:57.561Z,2.28
2022-07-29T04:44:28.794Z,2.53
2022-07-29T04:46:57.672Z,2.67
2022-07-29T04:49:25.443Z,2.27
2022-07-29T04:51:52.511Z,2.72
2022-07-29T04:54:19.881Z,2.65
2022-07-29T04:56:47.382Z,2.10
2022-07-29T04:59:18.017Z,2.50
2022-07-29T05:01:45.174Z,2.60
2022-07-29T05:04:12.613Z,2.55
2022-07-29T05:06:40.253Z,3.10
2022-07-29T05:09:08.800Z,2.45
2022-07-29T05:11:35.986Z,2.10
2022-07-29T05:14:03.161Z,2.80
2022-07-29T05:16:30.510Z,2.53
2022-07-29T05:18:58.015Z,2.17
2022-07-29T05:21:25.178Z,2.40
2022-07-29T05:23:52.372Z,2.30
2022-07-29T05:26:23.977Z,2.58
2022-07-29T05:28:51.533Z,2.75
2022-07-29T05:31:18.729Z,2.47
2022-07-29T05:33:46.130Z,2.38
2022-07-29T05:36:13.346Z,2.65
2022-07-29T05:38:45.924Z,2.38
2022-07-29T05:41:12.898Z,2.50
2022-07-29T05:43:39.905Z,2.38
2022-07-29T05:46:07.012Z,2.58
2022-07-29T05:48:34.210Z,2.42
2022-07-29T05:51:01.592Z,2.42
2022-07-29T05:53:29.918Z,2.05
2022-07-29T05:56:06.748Z,1.98
2022-07-29T05:58:34.214Z,2.28
2022-07-29T06:01:01.567Z,2.15
2022-07-29T06:03:32.620Z,2.45
2022-07-29T06:05:59.625Z,2.40
2022-07-29T06:08:26.790Z,1.98
2022-07-29T06:10:54.081Z,2.58
2022-07-29T06:13:21.136Z,2.33
2022-07-29T06:15:53.331Z,2.20
2022-07-29T06:18:21.717Z,2.42
2022-07-29T06:20:49.085Z,1.95
2022-07-29T06:23:20.617Z,3.08
2022-07-29T06:25:47.860Z,2.45
2022-07-29T06:28:19.006Z,2.63
2022-07-29T06:30:47.454Z,2.28
2022-07-29T06:33:19.647Z,2.75
2022-07-29T06:35:53.302Z,2.13
2022-07-29T06:38:33.844Z,2.40
2022-07-29T06:41:01.959Z,2.53
2022-07-29T06:43:50.162Z,2.25
2022-07-29T06:46:24.462Z,2.50
2022-07-29T06:48:53.221Z,2.28
2022-07-29T06:51:22.443Z,2.72
2022-07-29T06:53:59.978Z,2.17
2022-07-29T06:56:32.447Z,2.75
2022-07-29T06:59:15.771Z,2.55
2022-07-29T07:01:50.839Z,2.67
2022-07-29T07:04:25.447Z,3.08
2022-07-29T07:06:56.495Z,3.03
2022-07-29T07:09:23.672Z,2.22
2022-07-29T07:11:50.884Z,2.47
2022-07-29T07:14:18.296Z,2.53
2022-07-29T07:16:52.713Z,2.60
2022-07-29T07:19:25.457Z,2.65
2022-07-29T07:21:53.799Z,2.92
2022-07-29T07:24:22.772Z,2.70
2022-07-29T07:26:55.351Z,2.88
2022-07-29T07:29:26.278Z,2.47
2022-07-29T07:31:58.840Z,2.83
2022-07-29T07:34:28.271Z,2.70
2022-07-29T07:36:57.097Z,2.40
2022-07-29T07:39:24.391Z,2.70
2022-07-29T07:41:51.513Z,2.75
2022-07-29T07:44:23.689Z,2.50
2022-07-29T07:46:51.057Z,2.88
2022-07-29T07:49:18.208Z,3.22
2022-07-29T07:51:50.625Z,3.35
2022-07-29T07:54:21.396Z,2.90
2022-07-29T07:56:53.195Z,3.42
2022-07-29T07:59:24.582Z,3.60
2022-07-29T08:01:56.029Z,3.03
2022-07-29T08:04:28.117Z,3.92
2022-07-29T08:06:57.666Z,3.63
2022-07-29T08:09:29.619Z,3.03
2022-07-29T08:12:00.230Z,2.75
2022-07-29T08:14:27.434Z,3.03
2022-07-29T08:16:54.768Z,3.00
2022-07-29T08:19:21.999Z,3.05
2022-07-29T08:21:49.076Z,3.00
2022-07-29T08:24:34.669Z,3.13
2022-07-29T08:27:01.817Z,3.20
2022-07-29T08:29:29.269Z,3.10
2022-07-29T08:31:56.969Z,3.08
2022-07-29T08:34:27.028Z,3.92
2022-07-29T08:36:56.615Z,3.30
2022-07-29T08:39:31.360Z,3.42
2022-07-29T08:41:58.838Z,3.20
2022-07-29T08:44:30.750Z,3.50
2022-07-29T08:46:58.501Z,3.85
2022-07-29T08:49:36.058Z,3.45
2022-07-29T08:52:03.593Z,3.67
2022-07-29T08:54:31.677Z,3.70
2022-07-29T08:57:00.545Z,3.22
2022-07-29T08:59:28.920Z,3.42
2022-07-29T09:02:01.122Z,3.15
2022-07-29T09:04:35.217Z,4.07
2022-07-29T09:07:05.233Z,3.40
2022-07-29T09:09:34.602Z,3.63
2022-07-29T09:12:02.082Z,3.50
2022-07-29T09:14:29.138Z,4.05
2022-07-29T09:17:03.800Z,4.45
2022-07-29T09:19:32.858Z,4.18
2022-07-29T09:22:03.745Z,4.38
2022-07-29T09:24:56.218Z,4.45
2022-07-29T09:27:27.472Z,3.78
2022-07-29T09:30:11.559Z,3.75
2022-07-29T09:33:00.945Z,3.72
2022-07-29T09:35:29.045Z,3.45
2022-07-29T09:37:56.487Z,3.22
2022-07-29T09:40:26.272Z,3.42
2022-07-29T09:42:57.789Z,3.65
2022-07-29T09:45:29.797Z,3.38
2022-07-29T09:48:01.167Z,3.35
2022-07-29T09:50:42.016Z,3.78
2022-07-29T09:53:12.019Z,3.40
2022-07-29T09:55:52.008Z,3.55
2022-07-29T09:58:21.686Z,3.83
2022-07-29T10:00:50.545Z,2.65
2022-07-29T10:03:18.361Z,3.38
2022-07-29T10:05:47.204Z,3.80
2022-07-29T10:08:14.429Z,3.25
2022-07-29T10:10:43.839Z,3.17
2022-07-29T10:13:17.131Z,3.20
2022-07-29T10:15:46.661Z,3.40
2022-07-29T10:18:18.068Z,3.13
2022-07-29T10:20:46.005Z,2.88
2022-07-29T10:23:13.568Z,3.25
2022-07-29T10:25:45.913Z,3.05
2022-07-29T10:28:16.513Z,2.88
2022-07-29T10:30:46.188Z,3.20
2022-07-29T10:36:02.937Z,2.83
2022-07-29T10:38:30.172Z,2.60
2022-07-29T10:41:32.297Z,2.70
2022-07-29T10:44:19.309Z,2.85
2022-07-29T10:49:20.234Z,2.78
2022-07-29T10:51:51.394Z,2.67
2022-07-29T10:54:19.573Z,2.40
2022-07-29T10:56:47.761Z,2.65
2022-07-29T10:59:21.554Z,2.97
2022-07-29T11:01:53.521Z,2.80
2022-07-29T11:04:47.086Z,2.65
2022-07-29T11:07:17.139Z,2.70
2022-07-29T11:09:46.370Z,2.60
2022-07-29T11:12:39.260Z,3.00
2022-07-29T11:15:17.950Z,3.10
2022-07-29T11:18:01.483Z,2.63
2022-07-29T11:20:49.897Z,2.85
2022-07-29T11:23:33.945Z,2.83
2022-07-29T11:26:10.939Z,2.47
2022-07-29T11:29:01.843Z,2.00
2022-07-29T11:31:45.670Z,2.20
2022-07-29T11:34:30.071Z,2.53
2022-07-29T11:37:13.565Z,2.00
2022-07-29T11:39:41.611Z,2.08
2022-07-29T11:42:28.367Z,2.30
2022-07-29T11:45:08.900Z,2.88
2022-07-29T11:47:56.045Z,2.10
2022-07-29T11:50:37.658Z,2.22
2022-07-29T11:53:17.465Z,2.40
2022-07-29T11:56:04.396Z,2.30
2022-07-29T11:58:31.820Z,2.55
2022-07-29T12:01:18.424Z,3.20
2022-07-29T12:03:48.046Z,2.25
2022-07-29T12:06:34.939Z,2.45
2022-07-29T12:09:11.220Z,2.40
2022-07-29T12:11:41.487Z,2.85
2022-07-29T12:14:31.824Z,2.70
2022-07-29T12:17:32.261Z,2.10
2022-07-29T12:20:07.804Z,2.55
2022-07-29T12:22:38.897Z,2.60
2022-07-29T12:25:32.519Z,2.10
2022-07-29T12:28:07.459Z,1.90
2022-07-29T12:30:49.496Z,2.47
2022-07-29T12:33:25.243Z,2.50
2022-07-29T12:36:06.730Z,2.30
2022-07-29T12:38:41.125Z,1.92
2022-07-29T12:41:08.509Z,2.30
2022-07-29T12:43:54.987Z,2.72
2022-07-29T12:46:22.619Z,2.10
2022-07-29T12:48:55.717Z,2.45
2022-07-29T12:51:34.487Z,2.70
2022-07-29T12:54:20.145Z,2.28
2022-07-29T12:56:47.525Z,2.15
2022-07-29T12:59:22.793Z,2.20
2022-07-29T13:01:53.399Z,2.13
2022-07-29T13:04:30.454Z,2.42
2022-07-29T13:07:08.018Z,2.15
2022-07-29T13:09:48.708Z,2.40
2022-07-29T13:12:16.202Z,2.00
2022-07-29T13:14:45.826Z,2.10
2022-07-29T13:17:17.947Z,2.42
2022-07-29T13:19:53.867Z,2.03
2022-07-29T13:25:02.401Z,2.00
2022-07-29T13:27:35.301Z,2.22
2022-07-29T13:30:07.579Z,1.98
2022-07-29T13:32:38.559Z,2.30
2022-07-29T13:35:08.183Z,1.90
2022-07-29T13:37:38.990Z,2.00
2022-07-29T13:40:24.955Z,2.17
2022-07-29T13:42:52.277Z,2.25
2022-07-29T13:45:19.896Z,1.92
2022-07-29T13:47:49.804Z,2.17
2022-07-29T13:50:35.148Z,2.90
2022-07-29T13:53:02.405Z,2.92
2022-07-29T13:55:34.577Z,2.92
2022-07-29T13:58:01.664Z,2.72
2022-07-29T14:00:32.103Z,2.83
2022-07-29T14:03:02.005Z,2.90
2022-07-29T14:05:40.902Z,2.67
2022-07-29T14:08:08.189Z,2.67
2022-07-29T14:10:35.910Z,3.30
2022-07-29T14:13:05.906Z,3.08
2022-07-29T14:16:07.908Z,2.70
2022-07-29T14:18:35.110Z,2.60
2022-07-29T14:21:20.713Z,2.60
2022-07-29T14:23:48.592Z,2.60
2022-07-29T14:26:28.090Z,3.20
2022-07-29T14:28:55.638Z,3.00
2022-07-29T14:31:22.999Z,2.80
2022-07-29T14:34:02.832Z,3.28
2022-07-29T14:36:32.829Z,3.30
2022-07-29T14:39:00.089Z,3.17
2022-07-29T14:41:29.099Z,2.80
2022-07-29T14:43:56.424Z,3.72
2022-07-29T14:46:23.962Z,3.17
2022-07-29T14:48:51.153Z,3.15
2022-07-29T14:51:18.446Z,3.17
2022-07-29T14:53:45.665Z,3.53
2022-07-29T14:56:35.475Z,3.45
2022-07-29T14:59:07.085Z,3.30
2022-07-29T15:01:37.574Z,3.40
2022-07-29T15:04:07.174Z,3.20
2022-07-29T15:06:38.803Z,3.25
2022-07-29T15:09:11.115Z,3.10
2022-07-29T15:11:42.108Z,3.00
2022-07-29T15:14:09.490Z,2.58
2022-07-29T15:16:38.242Z,2.45
2022-07-29T15:19:15.769Z,2.60
2022-07-29T15:21:48.381Z,2.40
2022-07-29T15:24:18.018Z,2.60
2022-07-29T15:26:45.636Z,2.05
2022-07-29T15:29:18.330Z,2.60
2022-07-29T15:31:45.585Z,2.60
2022-07-29T15:34:13.021Z,2.65
2022-07-29T15:36:56.297Z,2.28
2022-07-29T15:39:23.943Z,2.20
2022-07-29T15:41:55.668Z,2.35
2022-07-29T15:44:27.383Z,2.10
2022-07-29T15:47:03.601Z,2.28
2022-07-29T15:49:46.633Z,2.10
2022-07-29T15:52:26.120Z,2.20
2022-07-29T15:54:57.675Z,2.30
2022-07-29T15:57:25.762Z,1.98
2022-07-29T15:59:53.326Z,2.45
2022-07-29T16:02:22.966Z,2.10
2022-07-29T16:04:54.075Z,2.30
2022-07-29T16:07:21.386Z,1.90
2022-07-29T16:09:53.251Z,1.98
2022-07-29T16:12:21.061Z,2.03
2022-07-29T16:14:49.380Z,2.20
2022-07-29T16:17:16.973Z,2.03
2022-07-29T16:19:45.347Z,2.10
2022-07-29T16:22:13.213Z,2.07
2022-07-29T16:24:40.489Z,2.38
2022-07-29T16:27:08.181Z,2.30
2022-07-29T16:29:38.101Z,2.10
2022-07-29T16:32:06.591Z,2.45
2022-07-29T16:34:36.034Z,1.90
2022-07-29T16:37:04.387Z,1.88
2022-07-29T16:39:32.689Z,1.90
2022-07-29T16:42:07.590Z,2.38
2022-07-29T16:44:35.373Z,2.45
2022-07-29T16:47:03.604Z,2.17
2022-07-29T16:49:34.961Z,2.15
2022-07-29T16:52:02.321Z,1.90
2022-07-29T16:54:29.586Z,2.40
2022-07-29T16:56:57.355Z,2.00
2022-07-29T16:59:24.899Z,2.60
2022-07-29T17:01:52.373Z,2.00
2022-07-29T17:04:19.777Z,2.10
2022-07-29T17:06:49.473Z,2.40
2022-07-29T17:09:16.677Z,2.50
2022-07-29T17:11:55.072Z,2.05
2022-07-29T17:14:28.053Z,2.28
2022-07-29T17:17:01.167Z,1.95
2022-07-29T17:19:30.377Z,2.10
2022-07-29T17:22:08.473Z,1.85
2022-07-29T17:24:38.825Z,2.17
2022-07-29T17:27:06.696Z,2.38
2022-07-29T17:29:34.944Z,1.98
2022-07-29T17:32:12.736Z,2.65
2022-07-29T17:34:44.023Z,2.30
2022-07-29T17:37:12.281Z,2.47
2022-07-29T17:39:44.785Z,2.70
2022-07-29T17:42:17.352Z,1.80
2022-07-29T17:44:44.510Z,2.42
2022-07-29T17:47:15.944Z,2.15
2022-07-29T17:49:44.906Z,1.98
2022-07-29T17:52:12.332Z,2.20
2022-07-29T17:54:39.428Z,2.17
2022-07-29T17:57:06.825Z,2.10
2022-07-29T17:59:34.553Z,2.20
2022-07-29T18:02:03.140Z,2.28
2022-07-29T18:04:31.369Z,2.28
2022-07-29T18:06:58.726Z,2.13
2022-07-29T18:09:26.356Z,2.05
2022-07-29T18:11:53.726Z,2.10
2022-07-29T18:14:21.052Z,2.67
2022-07-29T18:16:48.520Z,2.70
2022-07-29T18:19:16.173Z,2.10
2022-07-29T18:21:54.510Z,2.25
2022-07-29T18:24:25.444Z,2.10
2022-07-29T18:26:58.477Z,2.08
2022-07-29T18:29:28.665Z,2.17
2022-07-29T18:31:56.269Z,2.40
2022-07-29T18:34:23.609Z,3.03
2022-07-29T18:36:51.149Z,2.53
2022-07-29T18:39:20.649Z,2.60
2022-07-29T18:41:51.217Z,2.70
2022-07-29T18:44:27.265Z,2.40
2022-07-29T18:46:55.587Z,2.70
2022-07-29T18:49:22.903Z,2.53
2022-07-29T18:51:50.817Z,2.58
2022-07-29T18:54:18.437Z,2.53
2022-07-29T18:56:52.993Z,2.50
2022-07-29T18:59:23.076Z,2.58
2022-07-29T19:01:58.026Z,2.33
2022-07-29T19:04:25.614Z,2.42
2022-07-29T19:06:55.190Z,2.70
2022-07-29T19:09:27.649Z,2.50
2022-07-29T19:11:59.655Z,2.88
2022-07-29T19:14:29.168Z,2.78
2022-07-29T19:16:57.842Z,2.60
2022-07-29T19:19:25.372Z,3.00
2022-07-29T19:21:52.763Z,2.42
2022-07-29T19:24:19.926Z,2.58
2022-07-29T19:26:47.219Z,2.97
2022-07-29T19:29:23.467Z,2.97
2022-07-29T19:31:53.984Z,2.60
2022-07-29T19:34:27.782Z,2.83
2022-07-29T19:37:04.333Z,3.17
2022-07-29T19:39:35.202Z,2.60
2022-07-29T19:42:03.607Z,3.30
2022-07-29T19:44:38.148Z,3.38
2022-07-29T19:47:05.989Z,2.80
2022-07-29T19:49:37.006Z,3.20
2022-07-29T19:52:04.591Z,2.70
2022-07-29T19:54:31.912Z,2.55
2022-07-29T19:56:59.741Z,2.95
2022-07-29T19:59:28.196Z,2.85
2022-07-29T20:01:57.281Z,2.80
2022-07-29T20:04:27.346Z,3.70
2022-07-29T20:06:56.983Z,3.47
2022-07-29T20:09:24.214Z,2.88
2022-07-29T20:11:51.428Z,2.42
2022-07-29T20:14:20.041Z,3.20
2022-07-29T20:16:47.149Z,2.72
2022-07-29T20:19:14.395Z,3.10
2022-07-29T20:21:41.709Z,2.92
2022-07-29T20:24:10.242Z,3.03
2022-07-29T20:26:38.034Z,3.53
2022-07-29T20:29:05.324Z,2.80
2022-07-29T20:31:32.879Z,3.63
2022-07-29T20:34:01.392Z,3.63
2022-07-29T20:36:28.621Z,3.10
2022-07-29T20:38:56.330Z,3.67
2022-07-29T20:41:23.335Z,3.75
2022-07-29T20:43:50.619Z,2.70
2022-07-29T20:46:18.569Z,2.70
2022-07-29T20:48:53.443Z,3.63
2022-07-29T20:51:22.225Z,3.90
2022-07-29T20:53:49.481Z,3.40
2022-07-29T20:56:19.587Z,3.45
2022-07-29T20:58:46.679Z,3.30
2022-07-29T21:01:13.830Z,3.55
2022-07-29T21:03:41.216Z,3.22
2022-07-29T21:06:09.051Z,3.03
2022-07-29T21:08:36.557Z,3.28
2022-07-29T21:11:04.741Z,3.50
2022-07-29T21:13:37.779Z,3.35
2022-07-29T21:16:12.794Z,3.25
2022-07-29T21:18:46.221Z,3.60
2022-07-29T21:21:14.870Z,2.97
2022-07-29T21:23:45.830Z,3.10
2022-07-29T21:26:13.259Z,3.28
2022-07-29T21:28:40.576Z,3.10
2022-07-29T21:31:12.833Z,3.60
2022-07-29T21:33:43.001Z,3.15
2022-07-29T21:36:44.019Z,3.90
2022-07-29T21:38:58.290Z,3.00
2022-07-29T21:41:25.482Z,3.40
2022-07-29T21:44:00.242Z,3.50
2022-07-29T21:46:28.601Z,3.70
2022-07-29T21:48:55.927Z,3.25
2022-07-29T21:51:23.071Z,3.60
2022-07-29T21:53:50.470Z,3.10
2022-07-29T21:56:27.614Z,3.38
2022-07-29T21:58:57.351Z,3.38
2022-07-29T22:01:24.494Z,3.55
2022-07-29T22:03:52.939Z,3.63
2022-07-29T22:06:20.835Z,3.45
2022-07-29T22:08:47.994Z,3.60
2022-07-29T22:11:16.432Z,3.73
2022-07-29T22:13:43.408Z,3.30
2022-07-29T22:16:14.667Z,3.25
2022-07-29T22:18:44.987Z,3.53
2022-07-29T22:21:15.232Z,3.10
2022-07-29T22:23:42.446Z,3.63
2022-07-29T22:26:09.561Z,3.42
2022-07-29T22:28:36.874Z,3.20
2022-07-29T22:33:32.361Z,3.45
2022-07-29T22:35:59.613Z,4.22
2022-07-29T22:38:30.556Z,3.90
2022-07-29T22:40:58.802Z,3.40
2022-07-29T22:43:28.602Z,3.75
2022-07-29T22:45:55.889Z,3.78
2022-07-29T22:48:28.601Z,3.63
2022-07-29T22:50:55.580Z,3.50
2022-07-29T22:53:22.738Z,3.42
2022-07-29T22:55:49.901Z,3.08
2022-07-29T22:58:17.151Z,3.30
2022-07-29T23:00:44.416Z,3.60
2022-07-29T23:03:11.450Z,3.00
2022-07-29T23:05:38.604Z,3.70
2022-07-29T23:08:08.866Z,3.63
2022-07-29T23:10:35.882Z,3.05
2022-07-29T23:13:02.928Z,3.03
2022-07-29T23:15:29.950Z,3.33
2022-07-29T23:17:57.026Z,3.17
2022-07-29T23:20:24.308Z,3.88
2022-07-29T23:22:51.623Z,3.90
2022-07-29T23:25:18.878Z,3.30
2022-07-29T23:27:45.872Z,3.83
2022-07-29T23:30:13.165Z,3.83
2022-07-29T23:32:40.185Z,3.70
2022-07-29T23:35:12.812Z,4.05
2022-07-29T23:37:39.923Z,3.55
2022-07-29T23:40:12.160Z,4.05
2022-07-29T23:42:42.143Z,3.95
2022-07-29T23:45:10.233Z,3.88
2022-07-29T23:47:40.204Z,4.05
2022-07-29T23:50:09.648Z,3.53
2022-07-29T23:52:37.098Z,4.38
2022-07-29T23:55:38.146Z,3.85
2022-07-29T23:57:52.261Z,3.58
